sensor_id;sensor_type;location;lat;lon;timestamp;P1;durP1;ratioP1;P2;durP2;ratioP2
11877;SDS011;5998;42.676;23.268;2023-03-01T00:00:42;4.97;;;3.90;;
11877;SDS011;5998;42.676;23.268;2023-03-01T00:03:11;4.40;;;3.50;;
11877;SDS011;5998;42.676;23.268;2023-03-01T00:05:44;4.57;;;3.57;;
11877;SDS011;5998;42.676;23.268;2023-03-01T00:08:11;3.23;;;2.43;;
11877;SDS011;5998;42.676;23.268;2023-03-01T00:10:38;4.67;;;3.10;;
11877;SDS011;5998;42.676;23.268;2023-03-01T00:13:05;3.87;;;3.33;;
11877;SDS011;5998;42.676;23.268;2023-03-01T00:15:32;4.03;;;3.57;;
11877;SDS011;5998;42.676;23.268;2023-03-01T00:17:59;5.10;;;4.00;;
11877;SDS011;5998;42.676;23.268;2023-03-01T00:20:26;4.43;;;4.03;;
11877;SDS011;5998;42.676;23.268;2023-03-01T00:22:54;4.33;;;3.70;;
11877;SDS011;5998;42.676;23.268;2023-03-01T00:25:21;3.73;;;3.43;;
11877;SDS011;5998;42.676;23.268;2023-03-01T00:27:48;4.53;;;4.13;;
11877;SDS011;5998;42.676;23.268;2023-03-01T00:30:15;4.30;;;3.90;;
11877;SDS011;5998;42.676;23.268;2023-03-01T00:32:42;4.73;;;4.00;;
11877;SDS011;5998;42.676;23.268;2023-03-01T00:35:08;3.60;;;3.30;;
11877;SDS011;5998;42.676;23.268;2023-03-01T00:37:35;3.10;;;2.23;;
11877;SDS011;5998;42.676;23.268;2023-03-01T00:40:03;11.47;;;4.40;;
11877;SDS011;5998;42.676;23.268;2023-03-01T00:42:31;4.07;;;3.67;;
11877;SDS011;5998;42.676;23.268;2023-03-01T00:44:58;4.53;;;3.47;;
11877;SDS011;5998;42.676;23.268;2023-03-01T00:47:24;3.53;;;3.23;;
11877;SDS011;5998;42.676;23.268;2023-03-01T00:49:51;3.70;;;3.40;;
11877;SDS011;5998;42.676;23.268;2023-03-01T00:52:17;3.80;;;3.50;;
11877;SDS011;5998;42.676;23.268;2023-03-01T00:54:44;4.00;;;3.70;;
11877;SDS011;5998;42.676;23.268;2023-03-01T00:57:12;3.00;;;2.47;;
11877;SDS011;5998;42.676;23.268;2023-03-01T00:59:39;3.87;;;3.57;;
11877;SDS011;5998;42.676;23.268;2023-03-01T01:02:06;4.53;;;3.00;;
11877;SDS011;5998;42.676;23.268;2023-03-01T01:04:32;2.27;;;2.07;;
11877;SDS011;5998;42.676;23.268;2023-03-01T01:06:59;3.80;;;3.50;;
11877;SDS011;5998;42.676;23.268;2023-03-01T01:09:25;3.17;;;2.97;;
11877;SDS011;5998;42.676;23.268;2023-03-01T01:11:52;4.73;;;3.20;;
11877;SDS011;5998;42.676;23.268;2023-03-01T01:14:20;2.83;;;2.60;;
11877;SDS011;5998;42.676;23.268;2023-03-01T01:16:47;2.83;;;2.63;;
11877;SDS011;5998;42.676;23.268;2023-03-01T01:19:14;3.30;;;3.00;;
11877;SDS011;5998;42.676;23.268;2023-03-01T01:21:42;3.03;;;2.83;;
11877;SDS011;5998;42.676;23.268;2023-03-01T01:24:10;2.90;;;2.70;;
11877;SDS011;5998;42.676;23.268;2023-03-01T01:26:37;3.10;;;2.83;;
11877;SDS011;5998;42.676;23.268;2023-03-01T01:29:04;2.80;;;2.60;;
11877;SDS011;5998;42.676;23.268;2023-03-01T01:31:33;2.87;;;2.67;;
11877;SDS011;5998;42.676;23.268;2023-03-01T01:34:02;2.70;;;2.50;;
11877;SDS011;5998;42.676;23.268;2023-03-01T01:36:31;2.60;;;2.40;;
11877;SDS011;5998;42.676;23.268;2023-03-01T01:38:58;2.53;;;2.33;;
11877;SDS011;5998;42.676;23.268;2023-03-01T01:41:25;3.40;;;2.53;;
11877;SDS011;5998;42.676;23.268;2023-03-01T01:46:41;2.70;;;2.50;;
11877;SDS011;5998;42.676;23.268;2023-03-01T01:49:13;2.17;;;1.93;;
11877;SDS011;5998;42.676;23.268;2023-03-01T01:51:47;2.50;;;2.37;;
11877;SDS011;5998;42.676;23.268;2023-03-01T01:54:16;2.30;;;2.10;;
11877;SDS011;5998;42.676;23.268;2023-03-01T01:56:48;1.90;;;1.80;;
11877;SDS011;5998;42.676;23.268;2023-03-01T01:59:18;1.07;;;1.07;;
11877;SDS011;5998;42.676;23.268;2023-03-01T02:01:50;2.00;;;1.90;;
11877;SDS011;5998;42.676;23.268;2023-03-01T02:04:17;1.97;;;1.87;;
11877;SDS011;5998;42.676;23.268;2023-03-01T02:06:45;2.27;;;2.07;;
11877;SDS011;5998;42.676;23.268;2023-03-01T02:09:18;2.27;;;2.17;;
11877;SDS011;5998;42.676;23.268;2023-03-01T02:11:47;2.03;;;1.93;;
11877;SDS011;5998;42.676;23.268;2023-03-01T02:14:15;2.03;;;1.90;;
11877;SDS011;5998;42.676;23.268;2023-03-01T02:16:42;2.00;;;1.90;;
11877;SDS011;5998;42.676;23.268;2023-03-01T02:19:11;1.90;;;1.80;;
11877;SDS011;5998;42.676;23.268;2023-03-01T02:21:46;2.10;;;1.90;;
11877;SDS011;5998;42.676;23.268;2023-03-01T02:24:21;1.80;;;1.70;;
11877;SDS011;5998;42.676;23.268;2023-03-01T02:27:03;2.33;;;2.00;;
11877;SDS011;5998;42.676;23.268;2023-03-01T02:29:32;1.87;;;1.77;;
11877;SDS011;5998;42.676;23.268;2023-03-01T02:31:59;2.10;;;2.00;;
11877;SDS011;5998;42.676;23.268;2023-03-01T02:34:28;2.10;;;2.00;;
11877;SDS011;5998;42.676;23.268;2023-03-01T02:36:59;2.00;;;1.90;;
11877;SDS011;5998;42.676;23.268;2023-03-01T02:39:30;2.07;;;1.97;;
11877;SDS011;5998;42.676;23.268;2023-03-01T02:42:00;1.90;;;1.80;;
11877;SDS011;5998;42.676;23.268;2023-03-01T02:44:28;2.10;;;2.00;;
11877;SDS011;5998;42.676;23.268;2023-03-01T02:46:56;2.00;;;1.90;;
11877;SDS011;5998;42.676;23.268;2023-03-01T02:49:29;2.13;;;2.03;;
11877;SDS011;5998;42.676;23.268;2023-03-01T02:52:08;2.57;;;2.37;;
11877;SDS011;5998;42.676;23.268;2023-03-01T02:55:01;2.10;;;2.00;;
11877;SDS011;5998;42.676;23.268;2023-03-01T02:57:33;2.50;;;2.30;;
11877;SDS011;5998;42.676;23.268;2023-03-01T03:00:03;1.93;;;1.83;;
11877;SDS011;5998;42.676;23.268;2023-03-01T03:02:34;2.30;;;2.10;;
11877;SDS011;5998;42.676;23.268;2023-03-01T03:05:03;3.83;;;2.30;;
11877;SDS011;5998;42.676;23.268;2023-03-01T03:07:33;2.67;;;2.47;;
11877;SDS011;5998;42.676;23.268;2023-03-01T03:10:00;3.20;;;2.90;;
11877;SDS011;5998;42.676;23.268;2023-03-01T03:12:27;2.43;;;2.27;;
11877;SDS011;5998;42.676;23.268;2023-03-01T03:14:54;3.30;;;2.60;;
11877;SDS011;5998;42.676;23.268;2023-03-01T03:17:20;2.93;;;2.67;;
11877;SDS011;5998;42.676;23.268;2023-03-01T03:19:49;3.30;;;2.77;;
11877;SDS011;5998;42.676;23.268;2023-03-01T03:22:15;2.90;;;2.70;;
11877;SDS011;5998;42.676;23.268;2023-03-01T03:24:42;2.53;;;2.33;;
11877;SDS011;5998;42.676;23.268;2023-03-01T03:27:09;3.40;;;3.10;;
11877;SDS011;5998;42.676;23.268;2023-03-01T03:29:35;3.50;;;3.20;;
11877;SDS011;5998;42.676;23.268;2023-03-01T03:32:02;3.13;;;2.83;;
11877;SDS011;5998;42.676;23.268;2023-03-01T03:34:29;3.60;;;3.30;;
11877;SDS011;5998;42.676;23.268;2023-03-01T03:36:58;3.60;;;3.30;;
11877;SDS011;5998;42.676;23.268;2023-03-01T03:39:24;3.57;;;3.27;;
11877;SDS011;5998;42.676;23.268;2023-03-01T03:41:51;3.67;;;3.33;;
11877;SDS011;5998;42.676;23.268;2023-03-01T03:44:18;3.70;;;3.37;;
11877;SDS011;5998;42.676;23.268;2023-03-01T03:47:03;3.07;;;2.87;;
11877;SDS011;5998;42.676;23.268;2023-03-01T03:49:30;3.10;;;2.90;;
11877;SDS011;5998;42.676;23.268;2023-03-01T03:51:58;2.70;;;2.50;;
11877;SDS011;5998;42.676;23.268;2023-03-01T03:54:25;3.90;;;3.47;;
11877;SDS011;5998;42.676;23.268;2023-03-01T03:59:37;2.43;;;2.23;;
11877;SDS011;5998;42.676;23.268;2023-03-01T04:02:03;3.43;;;1.90;;
11877;SDS011;5998;42.676;23.268;2023-03-01T04:04:30;2.03;;;1.67;;
11877;SDS011;5998;42.676;23.268;2023-03-01T04:06:58;4.27;;;3.67;;
11877;SDS011;5998;42.676;23.268;2023-03-01T04:09:25;5.53;;;3.13;;
11877;SDS011;5998;42.676;23.268;2023-03-01T04:11:52;3.20;;;2.90;;
11877;SDS011;5998;42.676;23.268;2023-03-01T04:14:18;3.37;;;3.07;;
11877;SDS011;5998;42.676;23.268;2023-03-01T04:16:45;2.93;;;2.73;;
11877;SDS011;5998;42.676;23.268;2023-03-01T04:19:12;2.53;;;2.33;;
11877;SDS011;5998;42.676;23.268;2023-03-01T04:21:40;3.00;;;2.63;;
11877;SDS011;5998;42.676;23.268;2023-03-01T04:24:08;2.80;;;2.57;;
11877;SDS011;5998;42.676;23.268;2023-03-01T04:26:34;1.70;;;1.60;;
11877;SDS011;5998;42.676;23.268;2023-03-01T04:29:01;4.00;;;3.50;;
11877;SDS011;5998;42.676;23.268;2023-03-01T04:31:28;3.50;;;2.97;;
11877;SDS011;5998;42.676;23.268;2023-03-01T04:33:55;3.67;;;3.37;;
11877;SDS011;5998;42.676;23.268;2023-03-01T04:36:22;5.37;;;2.80;;
11877;SDS011;5998;42.676;23.268;2023-03-01T04:38:50;3.27;;;2.97;;
11877;SDS011;5998;42.676;23.268;2023-03-01T04:41:20;2.67;;;2.27;;
11877;SDS011;5998;42.676;23.268;2023-03-01T04:43:48;3.60;;;2.50;;
11877;SDS011;5998;42.676;23.268;2023-03-01T04:46:16;2.50;;;2.30;;
11877;SDS011;5998;42.676;23.268;2023-03-01T04:48:44;2.60;;;2.40;;
11877;SDS011;5998;42.676;23.268;2023-03-01T04:51:11;1.47;;;1.37;;
11877;SDS011;5998;42.676;23.268;2023-03-01T04:53:39;3.27;;;2.70;;
11877;SDS011;5998;42.676;23.268;2023-03-01T04:56:06;4.87;;;3.00;;
11877;SDS011;5998;42.676;23.268;2023-03-01T04:58:34;1.53;;;1.43;;
11877;SDS011;5998;42.676;23.268;2023-03-01T05:01:01;1.57;;;1.47;;
11877;SDS011;5998;42.676;23.268;2023-03-01T05:03:27;3.43;;;2.83;;
11877;SDS011;5998;42.676;23.268;2023-03-01T05:05:54;2.67;;;2.47;;
11877;SDS011;5998;42.676;23.268;2023-03-01T05:08:25;2.03;;;1.87;;
11877;SDS011;5998;42.676;23.268;2023-03-01T05:10:52;1.90;;;1.80;;
11877;SDS011;5998;42.676;23.268;2023-03-01T05:13:20;1.30;;;1.20;;
11877;SDS011;5998;42.676;23.268;2023-03-01T05:15:49;3.17;;;2.87;;
11877;SDS011;5998;42.676;23.268;2023-03-01T05:18:20;1.40;;;1.30;;
11877;SDS011;5998;42.676;23.268;2023-03-01T05:20:51;3.83;;;3.13;;
11877;SDS011;5998;42.676;23.268;2023-03-01T05:23:18;2.00;;;1.70;;
11877;SDS011;5998;42.676;23.268;2023-03-01T05:25:44;8.50;;;3.77;;
11877;SDS011;5998;42.676;23.268;2023-03-01T05:28:11;2.20;;;1.90;;
11877;SDS011;5998;42.676;23.268;2023-03-01T05:30:38;2.60;;;2.40;;
11877;SDS011;5998;42.676;23.268;2023-03-01T05:33:06;3.33;;;3.03;;
11877;SDS011;5998;42.676;23.268;2023-03-01T05:35:38;2.97;;;2.53;;
11877;SDS011;5998;42.676;23.268;2023-03-01T05:38:06;2.97;;;2.47;;
11877;SDS011;5998;42.676;23.268;2023-03-01T05:40:33;4.10;;;3.70;;
11877;SDS011;5998;42.676;23.268;2023-03-01T05:43:01;5.97;;;3.17;;
11877;SDS011;5998;42.676;23.268;2023-03-01T05:45:30;2.93;;;2.00;;
11877;SDS011;5998;42.676;23.268;2023-03-01T05:47:57;2.87;;;2.67;;
11877;SDS011;5998;42.676;23.268;2023-03-01T05:50:26;2.07;;;1.87;;
11877;SDS011;5998;42.676;23.268;2023-03-01T05:52:57;1.60;;;1.50;;
11877;SDS011;5998;42.676;23.268;2023-03-01T05:55:25;3.13;;;2.90;;
11877;SDS011;5998;42.676;23.268;2023-03-01T05:57:53;2.00;;;1.80;;
11877;SDS011;5998;42.676;23.268;2023-03-01T06:00:21;2.93;;;2.40;;
11877;SDS011;5998;42.676;23.268;2023-03-01T06:02:48;3.33;;;3.03;;
11877;SDS011;5998;42.676;23.268;2023-03-01T06:05:15;2.60;;;2.37;;
11877;SDS011;5998;42.676;23.268;2023-03-01T06:07:43;4.67;;;3.37;;
11877;SDS011;5998;42.676;23.268;2023-03-01T06:10:10;2.37;;;2.13;;
11877;SDS011;5998;42.676;23.268;2023-03-01T06:12:38;3.60;;;3.30;;
11877;SDS011;5998;42.676;23.268;2023-03-01T06:15:06;4.97;;;3.90;;
11877;SDS011;5998;42.676;23.268;2023-03-01T06:17:35;4.47;;;3.83;;
11877;SDS011;5998;42.676;23.268;2023-03-01T06:20:04;4.70;;;4.27;;
11877;SDS011;5998;42.676;23.268;2023-03-01T06:22:32;5.57;;;2.53;;
11877;SDS011;5998;42.676;23.268;2023-03-01T06:25:00;9.60;;;4.63;;
11877;SDS011;5998;42.676;23.268;2023-03-01T06:27:27;4.90;;;3.20;;
11877;SDS011;5998;42.676;23.268;2023-03-01T06:29:54;4.80;;;3.40;;
11877;SDS011;5998;42.676;23.268;2023-03-01T06:32:20;2.70;;;2.50;;
11877;SDS011;5998;42.676;23.268;2023-03-01T06:34:47;5.60;;;3.63;;
11877;SDS011;5998;42.676;23.268;2023-03-01T06:37:14;6.80;;;3.10;;
11877;SDS011;5998;42.676;23.268;2023-03-01T06:39:40;2.23;;;2.03;;
11877;SDS011;5998;42.676;23.268;2023-03-01T06:42:08;3.63;;;3.33;;
11877;SDS011;5998;42.676;23.268;2023-03-01T06:44:36;7.03;;;4.87;;
11877;SDS011;5998;42.676;23.268;2023-03-01T06:47:02;5.83;;;4.37;;
11877;SDS011;5998;42.676;23.268;2023-03-01T06:49:29;5.83;;;4.73;;
11877;SDS011;5998;42.676;23.268;2023-03-01T06:51:56;4.27;;;3.53;;
11877;SDS011;5998;42.676;23.268;2023-03-01T06:54:23;3.50;;;3.10;;
11877;SDS011;5998;42.676;23.268;2023-03-01T06:56:50;3.77;;;3.40;;
11877;SDS011;5998;42.676;23.268;2023-03-01T06:59:18;4.13;;;3.73;;
11877;SDS011;5998;42.676;23.268;2023-03-01T07:01:45;3.30;;;3.00;;
11877;SDS011;5998;42.676;23.268;2023-03-01T07:04:12;4.80;;;2.93;;
11877;SDS011;5998;42.676;23.268;2023-03-01T07:06:39;3.67;;;3.37;;
11877;SDS011;5998;42.676;23.268;2023-03-01T07:09:06;3.13;;;2.30;;
11877;SDS011;5998;42.676;23.268;2023-03-01T07:11:33;4.30;;;3.00;;
11877;SDS011;5998;42.676;23.268;2023-03-01T07:14:00;6.20;;;3.03;;
11877;SDS011;5998;42.676;23.268;2023-03-01T07:16:28;4.00;;;3.00;;
11877;SDS011;5998;42.676;23.268;2023-03-01T07:18:54;5.37;;;2.80;;
11877;SDS011;5998;42.676;23.268;2023-03-01T07:21:21;4.10;;;3.07;;
11877;SDS011;5998;42.676;23.268;2023-03-01T07:23:48;4.77;;;2.73;;
11877;SDS011;5998;42.676;23.268;2023-03-01T07:26:15;3.57;;;2.30;;
11877;SDS011;5998;42.676;23.268;2023-03-01T07:28:41;3.63;;;2.10;;
11877;SDS011;5998;42.676;23.268;2023-03-01T07:31:08;5.50;;;2.87;;
11877;SDS011;5998;42.676;23.268;2023-03-01T07:33:36;4.03;;;2.90;;
11877;SDS011;5998;42.676;23.268;2023-03-01T07:36:03;3.10;;;2.70;;
11877;SDS011;5998;42.676;23.268;2023-03-01T07:38:31;4.03;;;2.63;;
11877;SDS011;5998;42.676;23.268;2023-03-01T07:40:59;2.87;;;2.50;;
11877;SDS011;5998;42.676;23.268;2023-03-01T07:43:27;3.10;;;2.83;;
11877;SDS011;5998;42.676;23.268;2023-03-01T07:45:54;4.73;;;2.43;;
11877;SDS011;5998;42.676;23.268;2023-03-01T07:48:20;3.80;;;2.73;;
11877;SDS011;5998;42.676;23.268;2023-03-01T07:50:48;3.23;;;2.90;;
11877;SDS011;5998;42.676;23.268;2023-03-01T07:53:15;3.27;;;2.97;;
11877;SDS011;5998;42.676;23.268;2023-03-01T07:55:42;5.43;;;3.50;;
11877;SDS011;5998;42.676;23.268;2023-03-01T07:58:08;3.47;;;3.17;;
11877;SDS011;5998;42.676;23.268;2023-03-01T08:00:35;4.90;;;3.20;;
11877;SDS011;5998;42.676;23.268;2023-03-01T08:03:02;2.27;;;2.07;;
11877;SDS011;5998;42.676;23.268;2023-03-01T08:05:29;4.27;;;2.60;;
11877;SDS011;5998;42.676;23.268;2023-03-01T08:07:57;3.13;;;2.83;;
11877;SDS011;5998;42.676;23.268;2023-03-01T08:10:23;3.07;;;2.80;;
11877;SDS011;5998;42.676;23.268;2023-03-01T08:12:50;2.93;;;2.73;;
11877;SDS011;5998;42.676;23.268;2023-03-01T08:15:18;4.90;;;3.40;;
11877;SDS011;5998;42.676;23.268;2023-03-01T08:17:44;5.47;;;2.97;;
11877;SDS011;5998;42.676;23.268;2023-03-01T08:20:11;2.70;;;2.50;;
11877;SDS011;5998;42.676;23.268;2023-03-01T08:22:38;5.70;;;2.33;;
11877;SDS011;5998;42.676;23.268;2023-03-01T08:25:07;5.50;;;3.43;;
11877;SDS011;5998;42.676;23.268;2023-03-01T08:27:34;6.67;;;4.80;;
11877;SDS011;5998;42.676;23.268;2023-03-01T08:30:01;5.67;;;4.40;;
11877;SDS011;5998;42.676;23.268;2023-03-01T08:32:27;6.23;;;4.80;;
11877;SDS011;5998;42.676;23.268;2023-03-01T08:34:54;4.73;;;4.03;;
11877;SDS011;5998;42.676;23.268;2023-03-01T08:37:21;4.17;;;3.17;;
11877;SDS011;5998;42.676;23.268;2023-03-01T08:39:48;8.03;;;5.00;;
11877;SDS011;5998;42.676;23.268;2023-03-01T08:42:16;5.77;;;5.23;;
11877;SDS011;5998;42.676;23.268;2023-03-01T08:44:43;6.53;;;5.03;;
11877;SDS011;5998;42.676;23.268;2023-03-01T08:47:09;5.43;;;4.67;;
11877;SDS011;5998;42.676;23.268;2023-03-01T08:49:36;7.00;;;3.97;;
11877;SDS011;5998;42.676;23.268;2023-03-01T08:52:03;4.37;;;3.97;;
11877;SDS011;5998;42.676;23.268;2023-03-01T08:54:29;3.73;;;3.03;;
11877;SDS011;5998;42.676;23.268;2023-03-01T08:56:56;4.07;;;3.40;;
11877;SDS011;5998;42.676;23.268;2023-03-01T08:59:25;4.20;;;3.20;;
11877;SDS011;5998;42.676;23.268;2023-03-01T09:01:54;4.67;;;3.33;;
11877;SDS011;5998;42.676;23.268;2023-03-01T09:04:21;3.83;;;3.20;;
11877;SDS011;5998;42.676;23.268;2023-03-01T09:06:48;3.97;;;3.30;;
11877;SDS011;5998;42.676;23.268;2023-03-01T09:09:15;5.67;;;3.10;;
11877;SDS011;5998;42.676;23.268;2023-03-01T09:11:43;5.30;;;3.30;;
11877;SDS011;5998;42.676;23.268;2023-03-01T09:14:11;3.40;;;3.10;;
11877;SDS011;5998;42.676;23.268;2023-03-01T09:16:40;6.93;;;3.23;;
11877;SDS011;5998;42.676;23.268;2023-03-01T09:19:06;3.30;;;3.00;;
11877;SDS011;5998;42.676;23.268;2023-03-01T09:21:33;3.23;;;2.97;;
11877;SDS011;5998;42.676;23.268;2023-03-01T09:24:00;3.67;;;2.93;;
11877;SDS011;5998;42.676;23.268;2023-03-01T09:26:27;4.23;;;3.27;;
11877;SDS011;5998;42.676;23.268;2023-03-01T09:28:54;4.47;;;3.87;;
11877;SDS011;5998;42.676;23.268;2023-03-01T09:31:22;3.13;;;2.93;;
11877;SDS011;5998;42.676;23.268;2023-03-01T09:33:52;4.17;;;3.00;;
11877;SDS011;5998;42.676;23.268;2023-03-01T09:36:20;3.37;;;2.67;;
11877;SDS011;5998;42.676;23.268;2023-03-01T09:38:48;3.00;;;2.80;;
11877;SDS011;5998;42.676;23.268;2023-03-01T09:41:29;3.17;;;2.87;;
11877;SDS011;5998;42.676;23.268;2023-03-01T09:44:05;2.87;;;2.67;;
11877;SDS011;5998;42.676;23.268;2023-03-01T09:46:40;3.30;;;3.00;;
11877;SDS011;5998;42.676;23.268;2023-03-01T09:49:12;3.13;;;2.83;;
11877;SDS011;5998;42.676;23.268;2023-03-01T09:51:43;4.60;;;2.60;;
11877;SDS011;5998;42.676;23.268;2023-03-01T09:54:20;2.60;;;2.40;;
11877;SDS011;5998;42.676;23.268;2023-03-01T09:56:49;3.80;;;2.90;;
11877;SDS011;5998;42.676;23.268;2023-03-01T09:59:25;4.43;;;2.90;;
11877;SDS011;5998;42.676;23.268;2023-03-01T10:01:57;3.30;;;2.43;;
11877;SDS011;5998;42.676;23.268;2023-03-01T10:04:35;2.73;;;2.53;;
11877;SDS011;5998;42.676;23.268;2023-03-01T10:07:17;3.60;;;2.53;;
11877;SDS011;5998;42.676;23.268;2023-03-01T10:09:53;3.00;;;2.17;;
11877;SDS011;5998;42.676;23.268;2023-03-01T10:12:22;3.67;;;2.57;;
11877;SDS011;5998;42.676;23.268;2023-03-01T10:14:54;5.93;;;2.43;;
11877;SDS011;5998;42.676;23.268;2023-03-01T10:17:27;2.70;;;2.50;;
11877;SDS011;5998;42.676;23.268;2023-03-01T10:20:10;4.60;;;3.10;;
11877;SDS011;5998;42.676;23.268;2023-03-01T10:22:42;2.60;;;2.40;;
11877;SDS011;5998;42.676;23.268;2023-03-01T10:25:14;4.53;;;2.60;;
11877;SDS011;5998;42.676;23.268;2023-03-01T10:27:43;5.03;;;2.77;;
11877;SDS011;5998;42.676;23.268;2023-03-01T10:30:16;4.17;;;2.60;;
11877;SDS011;5998;42.676;23.268;2023-03-01T10:32:46;3.67;;;2.87;;
11877;SDS011;5998;42.676;23.268;2023-03-01T10:35:18;5.27;;;2.70;;
11877;SDS011;5998;42.676;23.268;2023-03-01T10:37:56;2.67;;;2.43;;
11877;SDS011;5998;42.676;23.268;2023-03-01T10:40:24;2.73;;;2.23;;
11877;SDS011;5998;42.676;23.268;2023-03-01T10:42:51;3.10;;;2.80;;
11877;SDS011;5998;42.676;23.268;2023-03-01T10:45:26;3.33;;;3.03;;
11877;SDS011;5998;42.676;23.268;2023-03-01T10:48:02;4.43;;;3.27;;
11877;SDS011;5998;42.676;23.268;2023-03-01T10:50:32;3.10;;;2.67;;
11877;SDS011;5998;42.676;23.268;2023-03-01T10:52:59;4.23;;;2.90;;
11877;SDS011;5998;42.676;23.268;2023-03-01T10:55:30;4.00;;;2.80;;
11877;SDS011;5998;42.676;23.268;2023-03-01T11:00:48;3.50;;;2.80;;
11877;SDS011;5998;42.676;23.268;2023-03-01T11:03:18;3.50;;;3.20;;
11877;SDS011;5998;42.676;23.268;2023-03-01T11:05:53;5.50;;;3.50;;
11877;SDS011;5998;42.676;23.268;2023-03-01T11:08:29;3.53;;;3.23;;
11877;SDS011;5998;42.676;23.268;2023-03-01T11:11:04;7.53;;;3.47;;
11877;SDS011;5998;42.676;23.268;2023-03-01T11:13:32;6.00;;;3.30;;
11877;SDS011;5998;42.676;23.268;2023-03-01T11:16:01;4.57;;;3.47;;
11877;SDS011;5998;42.676;23.268;2023-03-01T11:18:30;3.53;;;3.10;;
11877;SDS011;5998;42.676;23.268;2023-03-01T11:20:59;3.20;;;2.90;;
11877;SDS011;5998;42.676;23.268;2023-03-01T11:23:28;4.47;;;3.30;;
11877;SDS011;5998;42.676;23.268;2023-03-01T11:25:58;3.27;;;2.97;;
11877;SDS011;5998;42.676;23.268;2023-03-01T11:28:28;5.03;;;2.93;;
11877;SDS011;5998;42.676;23.268;2023-03-01T11:30:56;2.87;;;2.67;;
11877;SDS011;5998;42.676;23.268;2023-03-01T11:33:33;2.83;;;2.63;;
11877;SDS011;5998;42.676;23.268;2023-03-01T11:36:06;2.77;;;2.57;;
11877;SDS011;5998;42.676;23.268;2023-03-01T11:38:40;2.97;;;2.77;;
11877;SDS011;5998;42.676;23.268;2023-03-01T11:41:11;3.77;;;3.20;;
11877;SDS011;5998;42.676;23.268;2023-03-01T11:43:44;3.47;;;3.17;;
11877;SDS011;5998;42.676;23.268;2023-03-01T11:46:29;3.33;;;3.00;;
11877;SDS011;5998;42.676;23.268;2023-03-01T11:49:17;3.50;;;2.83;;
11877;SDS011;5998;42.676;23.268;2023-03-01T11:52:09;2.97;;;2.77;;
11877;SDS011;5998;42.676;23.268;2023-03-01T11:54:51;3.50;;;3.20;;
11877;SDS011;5998;42.676;23.268;2023-03-01T11:57:33;3.20;;;2.90;;
11877;SDS011;5998;42.676;23.268;2023-03-01T12:00:18;3.17;;;2.90;;
11877;SDS011;5998;42.676;23.268;2023-03-01T12:02:58;4.03;;;3.00;;
11877;SDS011;5998;42.676;23.268;2023-03-01T12:05:52;4.80;;;3.37;;
11877;SDS011;5998;42.676;23.268;2023-03-01T12:08:45;3.47;;;3.17;;
11877;SDS011;5998;42.676;23.268;2023-03-01T12:11:23;3.10;;;2.90;;
11877;SDS011;5998;42.676;23.268;2023-03-01T12:14:24;5.67;;;3.03;;
11877;SDS011;5998;42.676;23.268;2023-03-01T12:17:25;4.10;;;3.50;;
11877;SDS011;5998;42.676;23.268;2023-03-01T12:20:12;3.83;;;3.53;;
11877;SDS011;5998;42.676;23.268;2023-03-01T12:22:58;3.90;;;3.47;;
11877;SDS011;5998;42.676;23.268;2023-03-01T12:25:44;3.63;;;2.97;;
11877;SDS011;5998;42.676;23.268;2023-03-01T12:31:18;3.20;;;2.90;;
11877;SDS011;5998;42.676;23.268;2023-03-01T12:34:11;3.60;;;3.30;;
11877;SDS011;5998;42.676;23.268;2023-03-01T12:36:52;3.50;;;3.20;;
11877;SDS011;5998;42.676;23.268;2023-03-01T12:39:37;4.13;;;3.73;;
11877;SDS011;5998;42.676;23.268;2023-03-01T12:42:18;4.00;;;3.67;;
11877;SDS011;5998;42.676;23.268;2023-03-01T12:44:59;3.97;;;3.57;;
11877;SDS011;5998;42.676;23.268;2023-03-01T12:47:44;3.80;;;3.50;;
11877;SDS011;5998;42.676;23.268;2023-03-01T12:50:26;3.97;;;3.50;;
11877;SDS011;5998;42.676;23.268;2023-03-01T12:53:03;5.20;;;4.80;;
11877;SDS011;5998;42.676;23.268;2023-03-01T12:55:31;7.40;;;4.03;;
11877;SDS011;5998;42.676;23.268;2023-03-01T12:58:04;4.57;;;3.60;;
11877;SDS011;5998;42.676;23.268;2023-03-01T13:00:43;4.60;;;3.70;;
11877;SDS011;5998;42.676;23.268;2023-03-01T13:03:29;5.53;;;3.77;;
11877;SDS011;5998;42.676;23.268;2023-03-01T13:06:04;9.17;;;3.83;;
11877;SDS011;5998;42.676;23.268;2023-03-01T13:08:39;4.80;;;4.00;;
11877;SDS011;5998;42.676;23.268;2023-03-01T13:11:12;3.00;;;2.70;;
11877;SDS011;5998;42.676;23.268;2023-03-01T13:13:45;4.60;;;3.60;;
11877;SDS011;5998;42.676;23.268;2023-03-01T13:16:20;2.70;;;2.50;;
11877;SDS011;5998;42.676;23.268;2023-03-01T13:19:08;3.00;;;2.80;;
11877;SDS011;5998;42.676;23.268;2023-03-01T13:21:39;4.33;;;3.93;;
11877;SDS011;5998;42.676;23.268;2023-03-01T13:27:10;4.53;;;3.60;;
11877;SDS011;5998;42.676;23.268;2023-03-01T13:29:51;5.13;;;3.27;;
11877;SDS011;5998;42.676;23.268;2023-03-01T13:32:20;3.70;;;3.30;;
11877;SDS011;5998;42.676;23.268;2023-03-01T13:34:49;2.60;;;2.40;;
11877;SDS011;5998;42.676;23.268;2023-03-01T13:37:24;2.37;;;2.17;;
11877;SDS011;5998;42.676;23.268;2023-03-01T13:43:29;3.67;;;3.30;;
11877;SDS011;5998;42.676;23.268;2023-03-01T13:45:58;4.67;;;3.43;;
11877;SDS011;5998;42.676;23.268;2023-03-01T13:48:27;4.60;;;4.03;;
11877;SDS011;5998;42.676;23.268;2023-03-01T13:50:58;3.87;;;3.50;;
11877;SDS011;5998;42.676;23.268;2023-03-01T13:53:27;3.63;;;3.23;;
11877;SDS011;5998;42.676;23.268;2023-03-01T13:56:00;3.53;;;3.23;;
11877;SDS011;5998;42.676;23.268;2023-03-01T13:58:29;5.40;;;3.63;;
11877;SDS011;5998;42.676;23.268;2023-03-01T14:01:00;3.50;;;3.20;;
11877;SDS011;5998;42.676;23.268;2023-03-01T14:03:28;5.07;;;3.50;;
11877;SDS011;5998;42.676;23.268;2023-03-01T14:05:58;6.53;;;4.20;;
11877;SDS011;5998;42.676;23.268;2023-03-01T14:08:28;4.27;;;3.60;;
11877;SDS011;5998;42.676;23.268;2023-03-01T14:13:54;4.10;;;3.70;;
11877;SDS011;5998;42.676;23.268;2023-03-01T14:16:35;3.47;;;3.17;;
11877;SDS011;5998;42.676;23.268;2023-03-01T14:19:15;3.93;;;3.57;;
11877;SDS011;5998;42.676;23.268;2023-03-01T14:21:45;5.23;;;4.03;;
11877;SDS011;5998;42.676;23.268;2023-03-01T14:24:16;4.50;;;3.90;;
11877;SDS011;5998;42.676;23.268;2023-03-01T14:26:45;4.80;;;3.87;;
11877;SDS011;5998;42.676;23.268;2023-03-01T14:29:24;7.53;;;3.30;;
11877;SDS011;5998;42.676;23.268;2023-03-01T14:32:09;5.20;;;3.90;;
11877;SDS011;5998;42.676;23.268;2023-03-01T14:34:38;5.27;;;3.80;;
11877;SDS011;5998;42.676;23.268;2023-03-01T14:37:10;6.00;;;3.63;;
11877;SDS011;5998;42.676;23.268;2023-03-01T14:39:37;6.80;;;4.93;;
11877;SDS011;5998;42.676;23.268;2023-03-01T14:42:04;4.83;;;3.30;;
11877;SDS011;5998;42.676;23.268;2023-03-01T14:44:31;3.90;;;3.50;;
11877;SDS011;5998;42.676;23.268;2023-03-01T14:47:02;8.97;;;4.10;;
11877;SDS011;5998;42.676;23.268;2023-03-01T14:49:31;6.13;;;4.30;;
11877;SDS011;5998;42.676;23.268;2023-03-01T14:51:59;3.63;;;3.27;;
11877;SDS011;5998;42.676;23.268;2023-03-01T14:54:29;5.70;;;3.90;;
11877;SDS011;5998;42.676;23.268;2023-03-01T14:57:03;6.70;;;3.97;;
11877;SDS011;5998;42.676;23.268;2023-03-01T14:59:32;4.70;;;3.63;;
11877;SDS011;5998;42.676;23.268;2023-03-01T15:02:00;5.50;;;3.20;;
11877;SDS011;5998;42.676;23.268;2023-03-01T15:04:27;3.60;;;2.80;;
11877;SDS011;5998;42.676;23.268;2023-03-01T15:06:57;6.27;;;3.30;;
11877;SDS011;5998;42.676;23.268;2023-03-01T15:09:30;3.23;;;2.87;;
11877;SDS011;5998;42.676;23.268;2023-03-01T15:12:00;4.60;;;3.20;;
11877;SDS011;5998;42.676;23.268;2023-03-01T15:14:43;7.97;;;3.40;;
11877;SDS011;5998;42.676;23.268;2023-03-01T15:17:20;4.53;;;2.87;;
11877;SDS011;5998;42.676;23.268;2023-03-01T15:19:53;7.60;;;3.57;;
11877;SDS011;5998;42.676;23.268;2023-03-01T15:22:21;5.53;;;3.20;;
11877;SDS011;5998;42.676;23.268;2023-03-01T15:24:50;3.70;;;3.00;;
11877;SDS011;5998;42.676;23.268;2023-03-01T15:27:17;3.73;;;3.00;;